Time;durP1;ratioP1;P1;durP2;ratioP2;P2;SDS_P1;SDS_P2;PMS_P1;PMS_P2;Temp;Humidity;BMP_temperature;BMP_pressure;BME280_temperature;BME280_humidity;BME280_pressure;Samples;Min_cycle;Max_cycle;Signal;HPM_P1;HPM_P2
2023/10/19 00:01:58;;;;;;;;;;;9.20;99.90;;;;;;5084363;28;20226;-70
2023/10/19 00:04:23;;;;;;;;;;;9.20;99.90;;;;;;5083759;28;19967;-70
2023/10/19 00:06:50;;;;;;;;;;;9.20;99.90;;;;;;5083360;28;19916;-70
2023/10/19 00:09:16;;;;;;;;;;;9.20;99.90;;;;;;5083833;28;19992;-70
2023/10/19 00:11:43;;;;;;;;;;;9.10;99.90;;;;;;5083199;28;19925;-71
2023/10/19 00:14:15;;;;;;;;;;;9.10;99.90;;;;;;5084004;28;19927;-71
2023/10/19 00:16:44;;;;;;;;;;;9.10;99.90;;;;;;5083306;28;19916;-70
2023/10/19 00:19:11;;;;;;;;;;;9.10;99.90;;;;;;5089196;28;19935;-71
2023/10/19 00:21:50;;;;;;;;;;;9.10;99.90;;;;;;5088923;28;20139;-70
2023/10/19 00:24:17;;;;;;;;;;;9.20;99.90;;;;;;5073641;28;20260;-70
2023/10/19 00:26:44;;;;;;;;;;;9.10;99.90;;;;;;5070456;28;19995;-70
2023/10/19 00:29:30;;;;;;;;;;;9.20;99.90;;;;;;5077653;28;20148;-70
2023/10/19 00:31:56;;;;;;;;;;;9.20;99.90;;;;;;5072919;28;19927;-70
2023/10/19 00:34:25;;;;;;;;;;;9.10;99.90;;;;;;5075980;28;20278;-69
2023/10/19 00:36:52;;;;;;;;;;;9.10;99.90;;;;;;5076901;28;19921;-70
2023/10/19 00:39:21;;;;;;;;;;;9.10;99.90;;;;;;5071630;28;19996;-70
2023/10/19 00:41:49;;;;;;;;;;;9.10;99.90;;;;;;5071435;28;20019;-70
2023/10/19 00:44:22;;;;;;;;;;;9.10;99.90;;;;;;5075292;28;19926;-69
2023/10/19 00:46:55;;;;;;;;;;;9.10;99.90;;;;;;5083183;28;20046;-70
2023/10/19 00:49:26;;;;;;;;;;;9.10;99.90;;;;;;5082912;28;20961;-70
2023/10/19 00:51:56;;;;;;;;;;;9.10;99.90;;;;;;5084902;28;19928;-70
2023/10/19 00:54:31;;;;;;;;;;;9.20;99.90;;;;;;5083115;28;19978;-71
2023/10/19 00:57:04;;;;;;;;;;;9.10;99.90;;;;;;5086531;28;19924;-71
2023/10/19 00:59:35;;;;;;;;;;;9.10;99.90;;;;;;5078075;28;19927;-71
2023/10/19 01:02:16;;;;;;;;;;;9.10;99.90;;;;;;5083177;28;19920;-70
2023/10/19 01:04:46;;;;;;;;;;;9.10;99.90;;;;;;5079036;28;19963;-70
2023/10/19 01:07:15;;;;;;;;;;;9.10;99.90;;;;;;5082733;28;19928;-70
2023/10/19 01:09:43;;;;;;;;;;;9.20;99.90;;;;;;5082514;28;20249;-70
2023/10/19 01:12:25;;;;;;;;;;;9.20;99.90;;;;;;5082497;28;19921;-70
2023/10/19 01:15:09;;;;;;;;;;;9.20;99.90;;;;;;5082069;28;19928;-69
2023/10/19 01:17:39;;;;;;;;;;;9.20;99.90;;;;;;5078887;28;19921;-71
2023/10/19 01:20:22;;;;;;;;;;;9.20;99.90;;;;;;5082828;28;19927;-70
2023/10/19 01:23:06;;;;;;;;;;;9.20;99.90;;;;;;5082571;28;19966;-71
2023/10/19 01:25:34;;;;;;;;;;;9.20;99.90;;;;;;5062877;28;19921;-70
2023/10/19 01:28:07;;;;;;;;;;;9.20;99.90;;;;;;5072881;28;19984;-70
2023/10/19 01:30:34;;;;;;;;;;;9.20;99.90;;;;;;5065313;28;19956;-70
2023/10/19 01:33:00;;;;;;;;;;;9.20;99.90;;;;;;5072396;28;19951;-71
2023/10/19 01:36:10;;;;;;;;;;;9.20;99.90;;;;;;5069235;28;19960;-70
2023/10/19 01:38:15;;;;;;;;;;;9.20;99.90;;;;;;5073497;28;19935;-70
2023/10/19 01:40:46;;;;;;;;;;;9.20;99.90;;;;;;5073554;28;19962;-70
2023/10/19 01:43:19;;;;;;;;;;;9.20;99.90;;;;;;5074453;28;19920;-71
2023/10/19 01:45:46;;;;;;;;;;;9.30;99.90;;;;;;5069708;28;19927;-70
2023/10/19 01:48:12;;;;;;;;;;;9.30;99.90;;;;;;5071581;28;19948;-70
2023/10/19 01:50:40;;;;;;;;;;;9.20;99.90;;;;;;5069531;28;20114;-71
2023/10/19 01:53:12;;;;;;;;;;;9.30;99.90;;;;;;5073043;28;19920;-70
2023/10/19 01:55:40;;;;;;;;;;;9.30;99.90;;;;;;5071456;28;19924;-71
2023/10/19 01:58:06;;;;;;;;;;;9.30;99.90;;;;;;5072689;28;19975;-71
2023/10/19 02:00:37;;;;;;;;;;;9.30;99.90;;;;;;5069300;28;19939;-71
2023/10/19 02:03:07;;;;;;;;;;;9.30;99.90;;;;;;5071466;28;19939;-70
2023/10/19 02:05:39;;;;;;;;;;;9.30;99.90;;;;;;5063940;28;19928;-70
2023/10/19 02:08:07;;;;;;;;;;;9.30;99.90;;;;;;5072872;28;19926;-70
2023/10/19 02:10:34;;;;;;;;;;;9.30;99.90;;;;;;5069161;28;19932;-71
2023/10/19 02:13:06;;;;;;;;;;;9.30;99.90;;;;;;5070331;28;19928;-72
2023/10/19 02:15:34;;;;;;;;;;;9.30;99.90;;;;;;5065332;28;19921;-70
2023/10/19 02:18:01;;;;;;;;;;;9.30;99.90;;;;;;5074384;28;19929;-71
2023/10/19 02:20:28;;;;;;;;;;;9.30;99.90;;;;;;5072976;28;20259;-70
2023/10/19 02:22:54;;;;;;;;;;;9.30;99.90;;;;;;5074840;28;19921;-71
2023/10/19 02:25:21;;;;;;;;;;;9.30;99.90;;;;;;5073513;28;19988;-71
2023/10/19 02:27:48;;;;;;;;;;;9.30;99.90;;;;;;5074403;28;19991;-70
2023/10/19 02:30:17;;;;;;;;;;;9.30;99.90;;;;;;5074590;28;19917;-71
2023/10/19 02:32:43;;;;;;;;;;;9.30;99.90;;;;;;5076418;28;19925;-70
2023/10/19 02:35:10;;;;;;;;;;;9.30;99.90;;;;;;5074766;28;19923;-71
2023/10/19 02:37:38;;;;;;;;;;;9.30;99.90;;;;;;5072902;28;19935;-70
2023/10/19 02:40:12;;;;;;;;;;;9.30;99.90;;;;;;5076138;28;20091;-69
2023/10/19 02:42:38;;;;;;;;;;;9.30;99.90;;;;;;5072996;28;20237;-71
2023/10/19 02:45:05;;;;;;;;;;;9.30;99.90;;;;;;5075042;28;19929;-70
2023/10/19 02:47:32;;;;;;;;;;;9.30;99.90;;;;;;5072903;28;19924;-71
2023/10/19 02:49:59;;;;;;;;;;;9.30;99.90;;;;;;5075157;28;20309;-70
2023/10/19 02:52:25;;;;;;;;;;;9.30;99.90;;;;;;5073220;28;19956;-70
2023/10/19 02:54:56;;;;;;;;;;;9.30;99.90;;;;;;5072731;28;19924;-71
2023/10/19 02:57:22;;;;;;;;;;;9.30;99.90;;;;;;5073104;28;19962;-70
2023/10/19 02:59:49;;;;;;;;;;;9.30;99.90;;;;;;5073448;28;19917;-70
2023/10/19 03:02:17;;;;;;;;;;;9.20;99.90;;;;;;5075243;28;19956;-70
2023/10/19 03:04:45;;;;;;;;;;;9.30;99.90;;;;;;5073094;28;19964;-70
2023/10/19 03:07:12;;;;;;;;;;;9.30;99.90;;;;;;5087083;28;19955;-70
2023/10/19 03:09:39;;;;;;;;;;;9.30;99.90;;;;;;5085425;28;20157;-71
2023/10/19 03:12:10;;;;;;;;;;;9.30;99.90;;;;;;5085216;28;19927;-71
2023/10/19 03:14:37;;;;;;;;;;;9.30;99.90;;;;;;5084888;28;19967;-70
2023/10/19 03:17:04;;;;;;;;;;;9.30;99.90;;;;;;5084313;28;19932;-70
2023/10/19 03:19:30;;;;;;;;;;;9.30;99.90;;;;;;5089859;28;19917;-70
2023/10/19 03:22:00;;;;;;;;;;;9.30;99.90;;;;;;5084990;28;19984;-71
2023/10/19 03:24:42;;;;;;;;;;;9.30;99.90;;;;;;5084288;28;19987;-71
2023/10/19 03:27:12;;;;;;;;;;;9.30;99.90;;;;;;5081475;28;19990;-71
2023/10/19 03:29:40;;;;;;;;;;;9.40;99.90;;;;;;5085136;28;20150;-71
2023/10/19 03:32:07;;;;;;;;;;;9.40;99.90;;;;;;5084772;28;19962;-71
2023/10/19 03:34:35;;;;;;;;;;;9.40;99.90;;;;;;5084701;28;19920;-71
2023/10/19 03:37:05;;;;;;;;;;;9.30;99.90;;;;;;5084849;28;19978;-71
2023/10/19 03:39:34;;;;;;;;;;;9.30;99.90;;;;;;5084571;28;19942;-71
2023/10/19 03:42:00;;;;;;;;;;;9.40;99.90;;;;;;5084217;28;19996;-70
2023/10/19 03:44:35;;;;;;;;;;;9.40;99.90;;;;;;5084448;28;19928;-70
2023/10/19 03:47:04;;;;;;;;;;;9.40;99.90;;;;;;5084375;28;19970;-71
2023/10/19 03:49:36;;;;;;;;;;;9.40;99.90;;;;;;5079750;28;19921;-71
2023/10/19 03:52:19;;;;;;;;;;;9.40;99.90;;;;;;5084336;28;19928;-71
2023/10/19 03:54:47;;;;;;;;;;;9.40;99.90;;;;;;5083276;28;19920;-71
2023/10/19 03:57:19;;;;;;;;;;;9.40;99.90;;;;;;5084149;28;19963;-71
2023/10/19 03:59:46;;;;;;;;;;;9.40;99.90;;;;;;5083808;28;19920;-71
2023/10/19 04:02:16;;;;;;;;;;;9.40;99.90;;;;;;5083955;28;19920;-71
2023/10/19 04:04:44;;;;;;;;;;;9.50;99.90;;;;;;5083267;28;19950;-71
2023/10/19 04:07:18;;;;;;;;;;;9.50;99.90;;;;;;5083476;28;19935;-71
2023/10/19 04:09:59;;;;;;;;;;;9.50;99.90;;;;;;5084076;28;19924;-71
2023/10/19 04:12:28;;;;;;;;;;;9.50;99.90;;;;;;5083580;28;20281;-71
2023/10/19 04:14:55;;;;;;;;;;;9.50;99.90;;;;;;5082868;28;19984;-71
2023/10/19 04:17:23;;;;;;;;;;;9.50;99.90;;;;;;5083847;28;19971;-70
2023/10/19 04:19:51;;;;;;;;;;;9.50;99.90;;;;;;5083438;28;20481;-71
2023/10/19 04:22:22;;;;;;;;;;;9.50;99.90;;;;;;5083318;28;19952;-69
2023/10/19 04:24:49;;;;;;;;;;;9.50;99.90;;;;;;5082627;28;19995;-71
2023/10/19 04:27:16;;;;;;;;;;;9.50;99.90;;;;;;5083558;28;19955;-70
2023/10/19 04:29:43;;;;;;;;;;;9.50;99.90;;;;;;5083612;28;19979;-71
2023/10/19 04:32:13;;;;;;;;;;;9.50;99.90;;;;;;5083589;28;19920;-71
2023/10/19 04:34:40;;;;;;;;;;;9.50;99.90;;;;;;5083318;28;19932;-71
2023/10/19 04:37:08;;;;;;;;;;;9.50;99.90;;;;;;5080163;28;20095;-71
2023/10/19 04:39:36;;;;;;;;;;;9.60;99.90;;;;;;5082574;28;19958;-70
2023/10/19 04:42:04;;;;;;;;;;;9.60;99.90;;;;;;5083181;28;19970;-71
2023/10/19 04:44:31;;;;;;;;;;;9.50;99.90;;;;;;5082755;28;20206;-71
2023/10/19 04:46:58;;;;;;;;;;;9.50;99.90;;;;;;5082749;28;20095;-70
2023/10/19 04:49:24;;;;;;;;;;;9.50;99.90;;;;;;5082805;28;20304;-70
2023/10/19 04:51:51;;;;;;;;;;;9.50;99.90;;;;;;5082928;28;19928;-70
2023/10/19 04:54:18;;;;;;;;;;;9.50;99.90;;;;;;5082546;28;19979;-70
2023/10/19 04:56:46;;;;;;;;;;;9.50;99.90;;;;;;5082053;28;19928;-70
2023/10/19 04:59:12;;;;;;;;;;;9.50;99.90;;;;;;5082669;28;19996;-70
2023/10/19 05:01:40;;;;;;;;;;;9.50;99.90;;;;;;5083177;28;19920;-70
2023/10/19 05:04:07;;;;;;;;;;;9.50;99.90;;;;;;5079698;28;19920;-70
2023/10/19 05:06:34;;;;;;;;;;;9.50;99.90;;;;;;5082009;28;20014;-70
2023/10/19 05:09:03;;;;;;;;;;;9.50;99.90;;;;;;5082715;28;20206;-69
2023/10/19 05:11:29;;;;;;;;;;;9.50;99.90;;;;;;5083086;28;19924;-70
2023/10/19 05:13:57;;;;;;;;;;;9.40;99.90;;;;;;5082590;28;19980;-70
2023/10/19 05:16:24;;;;;;;;;;;9.40;99.90;;;;;;5082061;28;20150;-72
2023/10/19 05:18:50;;;;;;;;;;;9.40;99.90;;;;;;5083051;28;19985;-70
2023/10/19 05:21:17;;;;;;;;;;;9.40;99.90;;;;;;5082880;28;19920;-75
2023/10/19 05:23:44;;;;;;;;;;;9.40;99.90;;;;;;5082655;28;19983;-70
2023/10/19 05:26:10;;;;;;;;;;;9.40;99.90;;;;;;5081605;28;20258;-75
2023/10/19 05:28:37;;;;;;;;;;;9.40;99.90;;;;;;5083223;28;20099;-71
2023/10/19 05:31:05;;;;;;;;;;;9.40;99.90;;;;;;5082756;28;19984;-70
2023/10/19 05:33:32;;;;;;;;;;;9.30;99.90;;;;;;5082741;28;20182;-69
2023/10/19 05:36:01;;;;;;;;;;;9.30;99.90;;;;;;5081889;28;20185;-70
2023/10/19 05:38:27;;;;;;;;;;;9.30;99.90;;;;;;5082259;28;20133;-70
2023/10/19 05:40:55;;;;;;;;;;;9.30;99.90;;;;;;5082620;28;20202;-70
2023/10/19 05:43:22;;;;;;;;;;;9.30;99.90;;;;;;5082369;28;19928;-70
2023/10/19 05:45:49;;;;;;;;;;;9.30;99.90;;;;;;5081894;28;19921;-70
2023/10/19 05:48:17;;;;;;;;;;;9.30;99.90;;;;;;5082388;28;20284;-70
2023/10/19 05:50:44;;;;;;;;;;;9.30;99.90;;;;;;5087895;28;19958;-70
2023/10/19 05:53:11;;;;;;;;;;;9.30;99.90;;;;;;5088712;28;19921;-70
2023/10/19 05:55:39;;;;;;;;;;;9.30;99.90;;;;;;5088682;28;19956;-70
2023/10/19 05:58:06;;;;;;;;;;;9.30;99.90;;;;;;5085458;28;19970;-70
2023/10/19 06:00:32;;;;;;;;;;;9.30;99.90;;;;;;5089091;28;19952;-70
2023/10/19 06:02:59;;;;;;;;;;;9.30;99.90;;;;;;5089237;28;19987;-71
2023/10/19 06:05:27;;;;;;;;;;;9.30;99.90;;;;;;5087404;28;19928;-70
2023/10/19 06:07:54;;;;;;;;;;;9.30;99.90;;;;;;5088901;28;19920;-70
2023/10/19 06:10:22;;;;;;;;;;;9.30;99.90;;;;;;5089090;28;19984;-70
2023/10/19 06:12:48;;;;;;;;;;;9.30;99.90;;;;;;5074910;28;19921;-70
2023/10/19 06:15:16;;;;;;;;;;;9.30;99.90;;;;;;5077396;28;19920;-70
2023/10/19 06:17:43;;;;;;;;;;;9.30;99.90;;;;;;5079655;28;19988;-70
2023/10/19 06:20:19;;;;;;;;;;;9.30;99.90;;;;;;5078529;28;20273;-70
2023/10/19 06:22:50;;;;;;;;;;;9.30;99.90;;;;;;5075051;28;20189;-69
2023/10/19 06:25:18;;;;;;;;;;;9.30;99.90;;;;;;5076930;28;19920;-70
2023/10/19 06:27:44;;;;;;;;;;;9.40;99.90;;;;;;5074798;28;19920;-70
2023/10/19 06:30:12;;;;;;;;;;;9.50;99.90;;;;;;5078437;28;19984;-71
2023/10/19 06:32:39;;;;;;;;;;;9.50;99.90;;;;;;5075976;28;20171;-72
2023/10/19 06:35:06;;;;;;;;;;;9.40;99.90;;;;;;5072863;28;19935;-70
2023/10/19 06:37:33;;;;;;;;;;;9.50;99.90;;;;;;5077918;28;19951;-70
2023/10/19 06:40:01;;;;;;;;;;;9.50;99.90;;;;;;5082433;28;20213;-70
2023/10/19 06:42:27;;;;;;;;;;;9.50;99.90;;;;;;5075309;28;19980;-71
2023/10/19 06:44:56;;;;;;;;;;;9.50;99.90;;;;;;5075270;28;19921;-70
2023/10/19 06:47:23;;;;;;;;;;;9.50;99.90;;;;;;5080678;28;19929;-70
2023/10/19 06:49:50;;;;;;;;;;;9.60;99.90;;;;;;5078065;28;19924;-70
2023/10/19 06:52:16;;;;;;;;;;;9.60;99.90;;;;;;5087017;28;20011;-69
2023/10/19 06:54:43;;;;;;;;;;;9.70;99.90;;;;;;5073633;28;19928;-69
2023/10/19 06:57:12;;;;;;;;;;;9.60;99.90;;;;;;5076870;28;19984;-70
2023/10/19 06:59:38;;;;;;;;;;;9.70;99.90;;;;;;5083311;28;19928;-70
2023/10/19 07:02:07;;;;;;;;;;;9.70;99.90;;;;;;5085363;28;19921;-70
2023/10/19 07:04:34;;;;;;;;;;;9.80;99.90;;;;;;5089252;28;19924;-70
2023/10/19 07:07:02;;;;;;;;;;;9.80;99.90;;;;;;5084908;28;19991;-71
2023/10/19 07:09:28;;;;;;;;;;;9.80;99.90;;;;;;5072315;28;19935;-70
2023/10/19 07:11:56;;;;;;;;;;;9.90;99.90;;;;;;5077188;28;20169;-70
2023/10/19 07:14:25;;;;;;;;;;;9.90;99.90;;;;;;5075790;28;19928;-70
2023/10/19 07:16:52;;;;;;;;;;;9.90;99.90;;;;;;5072829;28;19943;-70
2023/10/19 07:19:19;;;;;;;;;;;9.90;99.90;;;;;;5070305;28;19936;-70
2023/10/19 07:21:48;;;;;;;;;;;10.00;99.90;;;;;;5072618;28;19979;-70
2023/10/19 07:24:18;;;;;;;;;;;10.00;99.90;;;;;;5073670;28;19920;-70
2023/10/19 07:26:53;;;;;;;;;;;10.00;99.90;;;;;;5072334;28;19924;-70
2023/10/19 07:29:20;;;;;;;;;;;9.90;99.90;;;;;;5073463;28;19935;-70
2023/10/19 07:31:48;;;;;;;;;;;10.00;99.90;;;;;;5073032;28;19920;-70
2023/10/19 07:34:15;;;;;;;;;;;10.00;99.90;;;;;;5072331;28;19962;-70
2023/10/19 07:36:42;;;;;;;;;;;10.10;99.90;;;;;;5071402;28;19929;-70
2023/10/19 07:39:13;;;;;;;;;;;10.10;99.90;;;;;;5074318;28;19932;-70
2023/10/19 07:41:40;;;;;;;;;;;10.20;99.90;;;;;;5071433;28;19929;-70
2023/10/19 07:44:07;;;;;;;;;;;10.20;99.90;;;;;;5075293;28;19962;-70
2023/10/19 07:46:34;;;;;;;;;;;10.20;99.90;;;;;;5073921;28;20144;-70
2023/10/19 07:49:03;;;;;;;;;;;10.20;99.90;;;;;;5074309;28;19920;-70
2023/10/19 07:51:29;;;;;;;;;;;10.30;99.90;;;;;;5071699;28;19983;-70
2023/10/19 07:53:56;;;;;;;;;;;10.30;99.90;;;;;;5073458;28;19979;-71
2023/10/19 07:56:23;;;;;;;;;;;10.30;99.90;;;;;;5071540;28;19927;-70
2023/10/19 07:58:50;;;;;;;;;;;10.30;99.90;;;;;;5075581;28;19929;-70
2023/10/19 08:01:16;;;;;;;;;;;10.30;99.90;;;;;;5084263;28;20026;-71
2023/10/19 08:03:43;;;;;;;;;;;10.40;99.90;;;;;;5083863;28;19935;-70
2023/10/19 08:06:11;;;;;;;;;;;10.40;99.90;;;;;;5083137;28;20261;-70
2023/10/19 08:08:37;;;;;;;;;;;10.40;99.90;;;;;;5083775;28;19928;-70
2023/10/19 08:11:05;;;;;;;;;;;10.40;99.90;;;;;;5084051;28;19927;-70
2023/10/19 08:13:33;;;;;;;;;;;10.50;99.90;;;;;;5082730;28;19979;-70
2023/10/19 08:15:59;;;;;;;;;;;10.60;99.90;;;;;;5082930;28;19936;-70
2023/10/19 08:18:26;;;;;;;;;;;10.60;99.90;;;;;;5083781;28;19926;-70
2023/10/19 08:20:53;;;;;;;;;;;10.60;99.90;;;;;;5083901;28;19963;-70
2023/10/19 08:23:23;;;;;;;;;;;10.60;99.90;;;;;;5083214;28;19920;-70
2023/10/19 08:25:50;;;;;;;;;;;10.60;99.90;;;;;;5082940;28;19920;-71
2023/10/19 08:28:17;;;;;;;;;;;10.60;99.90;;;;;;5083528;28;19987;-73
2023/10/19 08:30:56;;;;;;;;;;;10.70;99.90;;;;;;5085695;28;19928;-73
2023/10/19 08:33:25;;;;;;;;;;;10.70;99.90;;;;;;5083155;28;19928;-70
2023/10/19 08:35:53;;;;;;;;;;;10.80;99.90;;;;;;5084830;28;20007;-70
2023/10/19 08:38:21;;;;;;;;;;;10.90;99.90;;;;;;5083238;28;19987;-70
2023/10/19 08:40:48;;;;;;;;;;;10.90;99.90;;;;;;5082638;28;19962;-70
2023/10/19 08:43:18;;;;;;;;;;;11.00;99.90;;;;;;5082797;28;19928;-70
2023/10/19 08:45:45;;;;;;;;;;;11.00;99.90;;;;;;5082532;28;19920;-70
2023/10/19 08:48:12;;;;;;;;;;;11.00;99.90;;;;;;5083687;28;19951;-70
2023/10/19 08:50:38;;;;;;;;;;;11.00;99.90;;;;;;5083197;28;20159;-70
2023/10/19 08:53:08;;;;;;;;;;;11.10;99.90;;;;;;5083128;28;19955;-70
2023/10/19 08:55:36;;;;;;;;;;;11.10;99.90;;;;;;5082630;28;19966;-70
2023/10/19 08:58:04;;;;;;;;;;;11.10;99.90;;;;;;5083138;28;19995;-70
2023/10/19 09:00:43;;;;;;;;;;;11.20;99.90;;;;;;5083175;28;19925;-70
2023/10/19 09:03:13;;;;;;;;;;;11.20;99.90;;;;;;5085568;28;19943;-70
2023/10/19 09:05:41;;;;;;;;;;;11.20;99.90;;;;;;5082176;28;20289;-70
2023/10/19 09:08:09;;;;;;;;;;;11.20;99.90;;;;;;5084951;28;19979;-70
2023/10/19 09:10:37;;;;;;;;;;;11.20;99.90;;;;;;5083059;28;19927;-70
2023/10/19 09:13:06;;;;;;;;;;;11.20;99.90;;;;;;5082890;28;19991;-70
2023/10/19 09:15:33;;;;;;;;;;;11.20;99.90;;;;;;5077603;28;19952;-71
2023/10/19 09:18:00;;;;;;;;;;;11.20;99.90;;;;;;5082057;28;19927;-70
2023/10/19 09:20:28;;;;;;;;;;;11.30;99.90;;;;;;5082568;28;19928;-70
2023/10/19 09:22:54;;;;;;;;;;;11.30;99.90;;;;;;5082260;28;20237;-72
2023/10/19 09:25:22;;;;;;;;;;;11.40;99.90;;;;;;5081911;28;19920;-70
2023/10/19 09:27:51;;;;;;;;;;;11.50;99.90;;;;;;5082702;28;19928;-71
2023/10/19 09:30:19;;;;;;;;;;;11.50;99.90;;;;;;5082677;28;19921;-70
2023/10/19 09:32:47;;;;;;;;;;;11.60;99.90;;;;;;5082484;28;19920;-69
2023/10/19 09:35:15;;;;;;;;;;;11.60;99.90;;;;;;5081809;28;19928;-70
2023/10/19 09:37:42;;;;;;;;;;;11.70;99.90;;;;;;5082498;28;19927;-70
2023/10/19 09:40:12;;;;;;;;;;;11.80;99.90;;;;;;5085648;28;20255;-70
2023/10/19 09:42:45;;;;;;;;;;;11.80;99.90;;;;;;5082134;28;20209;-71
2023/10/19 09:45:19;;;;;;;;;;;11.80;99.90;;;;;;5081882;28;19962;-71
2023/10/19 09:47:50;;;;;;;;;;;11.90;99.90;;;;;;5085959;28;20105;-73
2023/10/19 09:50:17;;;;;;;;;;;11.90;99.90;;;;;;5067665;28;19920;-70
2023/10/19 09:52:43;;;;;;;;;;;11.90;99.90;;;;;;5069728;28;19931;-70
2023/10/19 09:55:14;;;;;;;;;;;11.90;99.90;;;;;;5071243;28;19920;-70
2023/10/19 09:57:47;;;;;;;;;;;12.10;99.90;;;;;;5068053;28;19929;-70
2023/10/19 10:00:23;;;;;;;;;;;12.10;99.90;;;;;;5075804;28;19963;-70
2023/10/19 10:02:50;;;;;;;;;;;12.10;99.90;;;;;;5070040;28;19921;-70
2023/10/19 10:05:35;;;;;;;;;;;12.20;99.90;;;;;;5069985;28;19924;-70
2023/10/19 10:08:16;;;;;;;;;;;12.20;99.90;;;;;;5071667;28;19971;-70
2023/10/19 10:10:43;;;;;;;;;;;12.30;99.90;;;;;;5060513;28;19920;-70
2023/10/19 10:13:26;;;;;;;;;;;12.30;99.90;;;;;;5075994;28;19952;-70
2023/10/19 10:15:54;;;;;;;;;;;12.40;99.90;;;;;;5067960;28;19959;-71
2023/10/19 10:18:21;;;;;;;;;;;12.40;99.90;;;;;;5073597;28;20202;-70
2023/10/19 10:20:48;;;;;;;;;;;12.50;99.90;;;;;;5069782;28;20047;-70
2023/10/19 10:23:21;;;;;;;;;;;12.50;99.90;;;;;;5071130;28;19927;-70
2023/10/19 10:25:48;;;;;;;;;;;12.70;99.90;;;;;;5069561;28;19929;-70
2023/10/19 10:28:15;;;;;;;;;;;12.90;99.90;;;;;;5071104;28;19936;-70
2023/10/19 10:30:56;;;;;;;;;;;13.00;99.90;;;;;;5067895;28;19925;-70
2023/10/19 10:33:38;;;;;;;;;;;13.30;99.90;;;;;;5069428;28;19979;-70
2023/10/19 10:36:07;;;;;;;;;;;13.50;99.90;;;;;;5069002;28;19979;-70
2023/10/19 10:38:35;;;;;;;;;;;13.70;99.90;;;;;;5070196;28;19920;-70
2023/10/19 10:41:02;;;;;;;;;;;13.80;99.90;;;;;;5075864;28;19959;-70
2023/10/19 10:43:29;;;;;;;;;;;14.00;99.90;;;;;;5073802;28;20230;-69
2023/10/19 10:46:03;;;;;;;;;;;14.10;99.90;;;;;;5075458;28;19928;-71
2023/10/19 10:48:30;;;;;;;;;;;14.30;99.90;;;;;;5072105;28;19967;-70
2023/10/19 10:50:56;;;;;;;;;;;14.40;99.90;;;;;;5074259;28;19920;-71
2023/10/19 10:53:26;;;;;;;;;;;14.50;99.90;;;;;;5073136;28;19928;-71
2023/10/19 10:55:53;;;;;;;;;;;14.50;99.90;;;;;;5073247;28;19928;-70
2023/10/19 10:58:20;;;;;;;;;;;14.50;99.90;;;;;;5071371;28;19920;-71
2023/10/19 11:00:48;;;;;;;;;;;14.60;99.90;;;;;;5072271;28;19956;-71
2023/10/19 11:03:16;;;;;;;;;;;14.80;99.90;;;;;;5078198;28;20245;-70
2023/10/19 11:05:45;;;;;;;;;;;15.00;99.90;;;;;;5071193;28;19955;-71
2023/10/19 11:08:14;;;;;;;;;;;15.10;99.90;;;;;;5074252;28;20149;-70
2023/10/19 11:10:44;;;;;;;;;;;15.20;99.90;;;;;;5071852;28;19928;-71
2023/10/19 11:13:11;;;;;;;;;;;15.20;99.90;;;;;;5075831;28;20234;-71
2023/10/19 11:15:38;;;;;;;;;;;15.10;99.90;;;;;;5071093;28;19921;-71
2023/10/19 11:18:07;;;;;;;;;;;15.10;99.90;;;;;;5075336;28;19987;-71
2023/10/19 11:20:33;;;;;;;;;;;15.10;99.90;;;;;;5067138;28;20210;-71
2023/10/19 11:23:01;;;;;;;;;;;15.00;99.90;;;;;;5072127;28;19959;-71
2023/10/19 11:25:28;;;;;;;;;;;15.00;99.90;;;;;;5071060;28;19929;-71
2023/10/19 11:27:57;;;;;;;;;;;15.00;99.90;;;;;;5073859;28;20114;-70
2023/10/19 11:30:24;;;;;;;;;;;15.00;99.90;;;;;;5071385;28;19987;-70
2023/10/19 11:32:52;;;;;;;;;;;15.00;99.90;;;;;;5072555;28;20210;-71
2023/10/19 11:35:19;;;;;;;;;;;15.00;99.90;;;;;;5070695;28;19924;-71
2023/10/19 11:37:49;;;;;;;;;;;15.00;99.90;;;;;;5070622;28;19992;-70
2023/10/19 11:40:16;;;;;;;;;;;15.00;99.90;;;;;;5084256;28;19960;-71
2023/10/19 11:42:43;;;;;;;;;;;15.00;99.90;;;;;;5083728;28;20484;-71
2023/10/19 11:45:12;;;;;;;;;;;15.00;99.90;;;;;;5083398;28;19921;-71
2023/10/19 11:47:39;;;;;;;;;;;15.00;99.90;;;;;;5083748;28;19920;-71
2023/10/19 11:50:06;;;;;;;;;;;15.00;99.90;;;;;;5083863;28;19964;-71
2023/10/19 11:52:33;;;;;;;;;;;15.00;99.90;;;;;;5084442;28;19978;-71
2023/10/19 11:54:59;;;;;;;;;;;14.90;99.90;;;;;;5083096;28;19920;-71
2023/10/19 11:57:26;;;;;;;;;;;14.90;99.90;;;;;;5083704;28;19928;-71
2023/10/19 11:59:53;;;;;;;;;;;14.90;99.90;;;;;;5083771;28;19983;-71
2023/10/19 12:02:21;;;;;;;;;;;14.90;99.90;;;;;;5084179;28;19962;-71
2023/10/19 12:04:47;;;;;;;;;;;14.90;99.90;;;;;;5082751;28;19979;-71
2023/10/19 12:07:14;;;;;;;;;;;14.90;99.90;;;;;;5083160;28;19928;-70
2023/10/19 12:09:41;;;;;;;;;;;14.90;99.90;;;;;;5083422;28;19920;-71
2023/10/19 12:12:08;;;;;;;;;;;14.90;99.90;;;;;;5079187;28;19921;-71
2023/10/19 12:14:35;;;;;;;;;;;14.80;99.90;;;;;;5083268;28;19956;-71
2023/10/19 12:17:02;;;;;;;;;;;14.80;99.90;;;;;;5082951;28;20234;-71
2023/10/19 12:19:30;;;;;;;;;;;14.80;99.90;;;;;;5083838;28;19921;-72
2023/10/19 12:21:57;;;;;;;;;;;14.80;99.90;;;;;;5083076;28;19952;-71
2023/10/19 12:24:28;;;;;;;;;;;14.70;99.90;;;;;;5083243;28;19928;-71
2023/10/19 12:26:54;;;;;;;;;;;14.70;99.90;;;;;;5082396;28;20218;-71
2023/10/19 12:29:21;;;;;;;;;;;14.70;99.90;;;;;;5083299;28;19936;-71
2023/10/19 12:31:48;;;;;;;;;;;14.70;99.90;;;;;;5083130;28;19927;-71
2023/10/19 12:34:16;;;;;;;;;;;14.70;99.90;;;;;;5083087;28;19991;-71
2023/10/19 12:36:46;;;;;;;;;;;14.70;99.90;;;;;;5082882;28;19921;-71
2023/10/19 12:39:35;;;;;;;;;;;14.70;99.90;;;;;;5082668;28;20233;-71
2023/10/19 12:42:03;;;;;;;;;;;14.70;99.90;;;;;;5082710;28;19933;-71
2023/10/19 12:44:32;;;;;;;;;;;14.70;99.90;;;;;;5082369;28;19941;-70
2023/10/19 12:46:58;;;;;;;;;;;14.60;99.90;;;;;;5082802;28;19967;-71
2023/10/19 12:49:27;;;;;;;;;;;14.70;99.90;;;;;;5083057;28;19951;-71
2023/10/19 12:51:55;;;;;;;;;;;14.70;99.90;;;;;;5083016;28;19928;-71
2023/10/19 12:54:22;;;;;;;;;;;14.60;99.90;;;;;;5082711;28;19955;-71
2023/10/19 12:56:49;;;;;;;;;;;14.60;99.90;;;;;;5082034;28;20289;-71
2023/10/19 12:59:18;;;;;;;;;;;14.60;99.90;;;;;;5081757;28;19927;-68
2023/10/19 13:01:48;;;;;;;;;;;14.60;99.90;;;;;;5082622;28;20150;-71
2023/10/19 13:04:16;;;;;;;;;;;14.60;99.90;;;;;;5082416;28;19959;-71
2023/10/19 13:06:43;;;;;;;;;;;14.60;99.90;;;;;;5081704;28;19958;-71
2023/10/19 13:09:11;;;;;;;;;;;14.60;99.90;;;;;;5082213;28;20112;-71
2023/10/19 13:11:43;;;;;;;;;;;14.60;99.90;;;;;;5082575;28;19932;-71
2023/10/19 13:14:11;;;;;;;;;;;14.60;99.90;;;;;;5082101;28;19929;-71
2023/10/19 13:16:38;;;;;;;;;;;14.60;99.90;;;;;;5081603;28;19921;-71
2023/10/19 13:19:13;;;;;;;;;;;14.60;99.90;;;;;;5082368;28;20087;-71
2023/10/19 13:21:41;;;;;;;;;;;14.60;99.90;;;;;;5082321;28;19928;-73
2023/10/19 13:24:09;;;;;;;;;;;14.50;99.90;;;;;;5079465;28;19948;-72
2023/10/19 13:26:38;;;;;;;;;;;14.50;99.90;;;;;;5082050;28;19956;-71
2023/10/19 13:29:04;;;;;;;;;;;14.50;99.90;;;;;;5082393;28;19952;-71
2023/10/19 13:31:32;;;;;;;;;;;14.50;99.90;;;;;;5077623;28;19929;-71
2023/10/19 13:33:59;;;;;;;;;;;14.50;99.90;;;;;;5082145;28;20189;-71
2023/10/19 13:36:26;;;;;;;;;;;14.40;99.90;;;;;;5081465;28;19960;-72
2023/10/19 13:38:52;;;;;;;;;;;14.40;99.90;;;;;;5081753;28;19971;-71
2023/10/19 13:41:20;;;;;;;;;;;14.50;99.90;;;;;;5082655;28;19983;-71
2023/10/19 13:43:48;;;;;;;;;;;14.50;99.90;;;;;;5081844;28;20229;-72
2023/10/19 13:46:15;;;;;;;;;;;14.50;99.90;;;;;;5081447;28;20160;-67
2023/10/19 13:48:42;;;;;;;;;;;14.50;99.90;;;;;;5081322;28;19927;-72
2023/10/19 13:51:13;;;;;;;;;;;14.40;99.90;;;;;;5082695;28;19970;-71
2023/10/19 13:53:40;;;;;;;;;;;14.40;99.90;;;;;;5082079;28;19934;-69
2023/10/19 13:56:08;;;;;;;;;;;14.40;99.90;;;;;;5083218;28;20180;-71
2023/10/19 13:58:35;;;;;;;;;;;14.40;99.90;;;;;;5082180;28;19924;-71
2023/10/19 14:01:04;;;;;;;;;;;14.40;99.90;;;;;;5081716;28;20214;-76
2023/10/19 14:03:30;;;;;;;;;;;14.50;99.90;;;;;;5076766;28;19951;-71
2023/10/19 14:05:57;;;;;;;;;;;14.40;99.90;;;;;;5081468;28;19928;-70
2023/10/19 14:08:23;;;;;;;;;;;14.50;99.90;;;;;;5081875;28;19999;-69
2023/10/19 14:10:50;;;;;;;;;;;14.50;99.90;;;;;;5083988;28;19991;-71
2023/10/19 14:13:17;;;;;;;;;;;14.50;99.90;;;;;;5085975;28;20281;-70
2023/10/19 14:15:43;;;;;;;;;;;14.50;99.90;;;;;;5085428;28;19920;-70
2023/10/19 14:18:12;;;;;;;;;;;14.60;99.90;;;;;;5085902;28;19992;-70
2023/10/19 14:20:40;;;;;;;;;;;14.60;99.90;;;;;;5086036;28;19924;-70
2023/10/19 14:23:07;;;;;;;;;;;14.60;99.90;;;;;;5082422;28;20471;-70
2023/10/19 14:25:37;;;;;;;;;;;14.70;99.90;;;;;;5085608;28;19959;-70
2023/10/19 14:28:06;;;;;;;;;;;14.70;99.90;;;;;;5085820;28;19920;-71
2023/10/19 14:30:33;;;;;;;;;;;14.60;99.90;;;;;;5086294;28;19936;-71
2023/10/19 14:33:00;;;;;;;;;;;14.60;99.90;;;;;;5085735;28;20252;-70